createdAt,value
2023-04-04T00:00:54.356Z,102595.00
2023-04-04T00:03:22.609Z,102598.56
2023-04-04T00:05:51.807Z,102589.88
2023-04-04T00:08:19.949Z,102591.66
2023-04-04T00:10:48.175Z,102587.13
2023-04-04T00:13:17.850Z,102585.25
2023-04-04T00:15:46.159Z,102581.75
2023-04-04T00:18:14.368Z,102573.88
2023-04-04T00:20:42.717Z,102579.13
2023-04-04T00:23:11.228Z,102579.03
2023-04-04T00:25:39.639Z,102577.13
2023-04-04T00:28:07.853Z,102577.03
2023-04-04T00:30:38.194Z,102570.91
2023-04-04T00:33:06.652Z,102567.22
2023-04-04T00:35:34.990Z,102568.06
2023-04-04T00:38:03.118Z,102565.56
2023-04-04T00:40:31.570Z,102556.84
2023-04-04T00:43:00.821Z,102558.50
2023-04-04T00:45:29.124Z,102552.81
2023-04-04T00:47:59.680Z,102554.38
2023-04-04T00:50:27.918Z,102550.94
2023-04-04T00:52:56.417Z,102545.13
2023-04-04T00:55:24.816Z,102546.22
2023-04-04T00:57:53.184Z,102537.81
2023-04-04T01:00:22.126Z,102535.19
2023-04-04T01:02:50.226Z,102543.41
2023-04-04T01:05:19.867Z,102541.06
2023-04-04T01:07:48.139Z,102541.91
2023-04-04T01:10:16.338Z,102535.59
2023-04-04T01:12:44.718Z,102542.41
2023-04-04T01:15:13.044Z,102545.66
2023-04-04T01:17:42.071Z,102546.59
2023-04-04T01:20:14.183Z,102543.03
2023-04-04T01:22:48.298Z,102542.09
2023-04-04T01:25:17.796Z,102536.09
2023-04-04T01:27:47.316Z,102539.47
2023-04-04T01:30:17.820Z,102533.38
2023-04-04T01:32:51.136Z,102548.19
2023-04-04T01:35:27.453Z,102539.34
2023-04-04T01:38:09.502Z,102542.81
2023-04-04T01:40:40.003Z,102534.91
2023-04-04T01:43:10.003Z,102537.44
2023-04-04T01:45:38.205Z,102541.00
2023-04-04T01:48:06.713Z,102536.59
2023-04-04T01:50:34.911Z,102536.59
2023-04-04T01:53:03.009Z,102539.13
2023-04-04T01:55:31.164Z,102530.41
2023-04-04T01:57:59.330Z,102532.78
2023-04-04T02:00:28.905Z,102525.66
2023-04-04T02:02:57.439Z,102529.00
2023-04-04T02:05:25.879Z,102519.31
2023-04-04T02:07:54.155Z,102515.84
2023-04-04T02:10:22.275Z,102519.44
2023-04-04T02:12:50.398Z,102514.19
2023-04-04T02:15:19.462Z,102518.47
2023-04-04T02:17:50.739Z,102512.38
2023-04-04T02:20:19.653Z,102514.91
2023-04-04T02:22:54.829Z,102510.72
2023-04-04T02:25:24.562Z,102512.25
2023-04-04T02:27:52.748Z,102509.63
2023-04-04T02:30:20.945Z,102508.09
2023-04-04T02:32:50.542Z,102506.63
2023-04-04T02:35:18.742Z,102507.34
2023-04-04T02:37:48.324Z,102505.91
2023-04-04T02:40:16.693Z,102494.66
2023-04-04T02:42:45.665Z,102500.66
2023-04-04T02:45:14.860Z,102502.22
2023-04-04T02:47:43.871Z,102502.53
2023-04-04T02:50:13.624Z,102496.94
2023-04-04T02:52:41.852Z,102499.69
2023-04-04T02:55:11.891Z,102494.31
2023-04-04T02:57:40.462Z,102492.88
2023-04-04T03:00:10.041Z,102500.03
2023-04-04T03:02:38.363Z,102489.28
2023-04-04T03:05:07.229Z,102493.00
2023-04-04T03:07:36.922Z,102492.38
2023-04-04T03:10:05.518Z,102491.41
2023-04-04T03:12:33.627Z,102487.25
2023-04-04T03:15:01.936Z,102488.91
2023-04-04T03:17:30.268Z,102489.75
2023-04-04T03:19:58.437Z,102476.38
2023-04-04T03:22:26.511Z,102480.69
2023-04-04T03:24:56.027Z,102463.00
2023-04-04T03:27:24.301Z,102465.53
2023-04-04T03:29:52.435Z,102463.97
2023-04-04T03:32:20.484Z,102469.34
2023-04-04T03:34:48.635Z,102462.28
2023-04-04T03:37:16.808Z,102459.44
2023-04-04T03:39:45.171Z,102467.09
2023-04-04T03:42:14.736Z,102458.72
2023-04-04T03:44:43.102Z,102449.88
2023-04-04T03:47:11.356Z,102454.19
2023-04-04T03:49:39.538Z,102454.91
2023-04-04T03:52:07.898Z,102448.94
2023-04-04T03:54:36.233Z,102461.50
2023-04-04T03:57:05.186Z,102454.22
2023-04-04T03:59:34.890Z,102448.97
2023-04-04T04:02:02.962Z,102451.59
2023-04-04T04:04:31.196Z,102448.00
2023-04-04T04:06:59.551Z,102451.38
2023-04-04T04:09:27.718Z,102453.16
2023-04-04T04:11:55.850Z,102453.75
2023-04-04T04:14:23.996Z,102454.72
2023-04-04T04:16:53.667Z,102457.34
2023-04-04T04:19:21.869Z,102454.72
2023-04-04T04:21:49.955Z,102451.97
2023-04-04T04:24:18.280Z,102453.88
2023-04-04T04:26:46.607Z,102459.13
2023-04-04T04:29:14.778Z,102451.97
2023-04-04T04:31:42.949Z,102449.25
2023-04-04T04:34:12.710Z,102454.38
2023-04-04T04:36:41.190Z,102446.34
2023-04-04T04:39:09.432Z,102442.81
2023-04-04T04:41:38.599Z,102445.19
2023-04-04T04:44:07.565Z,102434.66
2023-04-04T04:46:35.766Z,102443.72
2023-04-04T04:49:04.057Z,102437.28
2023-04-04T04:51:33.704Z,102430.16
2023-04-04T04:54:01.880Z,102428.44
2023-04-04T04:56:30.021Z,102424.16
2023-04-04T04:58:58.941Z,102423.31
2023-04-04T05:01:27.450Z,102423.19
2023-04-04T05:03:55.617Z,102423.09
2023-04-04T05:06:23.746Z,102422.25
2023-04-04T05:08:53.345Z,102427.50
2023-04-04T05:11:21.775Z,102422.47
2023-04-04T05:13:50.107Z,102430.38
2023-04-04T05:16:20.526Z,102434.16
2023-04-04T05:18:49.052Z,102421.16
2023-04-04T05:21:17.573Z,102424.97
2023-04-04T05:23:45.657Z,102420.53
2023-04-04T05:26:15.447Z,102423.03
2023-04-04T05:28:43.571Z,102418.66
2023-04-04T05:31:11.774Z,102419.22
2023-04-04T05:33:39.993Z,102411.47
2023-04-04T05:36:08.954Z,102413.16
2023-04-04T05:38:37.313Z,102410.97
2023-04-04T05:41:05.758Z,102410.59
2023-04-04T05:43:35.319Z,102419.44
2023-04-04T05:46:03.588Z,102420.88
2023-04-04T05:48:31.912Z,102418.38
2023-04-04T05:51:00.113Z,102415.84
2023-04-04T05:53:28.206Z,102420.19
2023-04-04T05:55:56.338Z,102418.38
2023-04-04T05:58:24.632Z,102425.09
2023-04-04T06:00:54.117Z,102425.91
2023-04-04T06:03:22.466Z,102424.59
2023-04-04T06:05:53.477Z,102415.97
2023-04-04T06:08:21.708Z,102421.97
2023-04-04T06:10:49.768Z,102420.75
2023-04-04T06:13:17.949Z,102422.56
2023-04-04T06:15:46.068Z,102428.16
2023-04-04T06:18:16.842Z,102427.22
2023-04-04T06:20:44.999Z,102431.41
2023-04-04T06:23:13.246Z,102432.13
2023-04-04T06:25:41.590Z,102431.19
2023-04-04T06:28:11.140Z,102441.56
2023-04-04T06:30:39.726Z,102437.97
2023-04-04T06:33:08.398Z,102443.25
2023-04-04T06:35:37.877Z,102443.03
2023-04-04T06:38:06.034Z,102438.47
2023-04-04T06:40:34.240Z,102446.13
2023-04-04T06:43:02.638Z,102451.75
2023-04-04T06:45:33.630Z,102443.03
2023-04-04T06:48:02.444Z,102439.22
2023-04-04T06:50:32.419Z,102442.34
2023-04-04T06:53:02.433Z,102447.13
2023-04-04T06:55:30.627Z,102441.84
2023-04-04T06:57:58.807Z,102443.66
2023-04-04T07:00:27.000Z,102440.06
2023-04-04T07:02:59.292Z,102430.91
2023-04-04T07:05:27.549Z,102428.25
2023-04-04T07:07:57.089Z,102422.75
2023-04-04T07:10:27.373Z,102428.75
2023-04-04T07:12:55.741Z,102418.31
2023-04-04T07:15:23.822Z,102418.31
2023-04-04T07:17:52.314Z,102414.84
2023-04-04T07:20:20.584Z,102412.22
2023-04-04T07:22:50.379Z,102406.75
2023-04-04T07:25:18.645Z,102406.63
2023-04-04T07:27:48.386Z,102403.75
2023-04-04T07:30:17.075Z,102407.00
2023-04-04T07:32:45.273Z,102402.31
2023-04-04T07:35:13.956Z,102408.06
2023-04-04T07:37:42.060Z,102398.00
2023-04-04T07:40:11.264Z,102403.28
2023-04-04T07:42:45.097Z,102393.81
2023-04-04T07:45:15.301Z,102396.94
2023-04-04T07:47:45.162Z,102386.91
2023-04-04T07:50:13.616Z,102385.69
2023-04-04T07:52:42.342Z,102373.84
2023-04-04T07:55:10.921Z,102369.06
2023-04-04T07:57:40.083Z,102356.00
2023-04-04T08:00:10.983Z,102345.94
2023-04-04T08:02:40.865Z,102349.78
2023-04-04T08:05:10.470Z,102347.97
2023-04-04T08:07:38.627Z,102354.44
2023-04-04T08:10:08.121Z,102350.69
2023-04-04T08:12:36.344Z,102347.31
2023-04-04T08:15:04.588Z,102342.38
2023-04-04T08:17:32.763Z,102342.97
2023-04-04T08:20:02.603Z,102344.38
2023-04-04T08:22:30.800Z,102341.88
2023-04-04T08:24:58.984Z,102336.72
2023-04-04T08:27:27.482Z,102328.72
2023-04-04T08:29:55.639Z,102331.22
2023-04-04T08:32:23.863Z,102322.84
2023-04-04T08:34:52.193Z,102329.69
2023-04-04T08:37:22.378Z,102328.72
2023-04-04T08:39:50.724Z,102328.34
2023-04-04T08:42:20.862Z,102328.19
2023-04-04T08:44:53.926Z,102332.44
2023-04-04T08:47:25.334Z,102332.16
2023-04-04T08:49:56.756Z,102327.22
2023-04-04T08:52:28.745Z,102336.56
2023-04-04T08:54:57.893Z,102341.91
2023-04-04T08:57:26.413Z,102344.97
2023-04-04T08:59:55.275Z,102341.00
2023-04-04T09:02:30.701Z,102331.72
2023-04-04T09:05:06.433Z,102322.59
2023-04-04T09:07:39.235Z,102333.13
2023-04-04T09:10:11.912Z,102319.81
2023-04-04T09:12:43.753Z,102326.50
2023-04-04T09:15:13.744Z,102326.38
2023-04-04T09:17:42.085Z,102330.69
2023-04-04T09:20:35.416Z,102330.38
2023-04-04T09:23:07.125Z,102332.38
2023-04-04T09:25:35.412Z,102340.97
2023-04-04T09:28:05.670Z,102339.88
2023-04-04T09:30:35.778Z,102337.69
2023-04-04T09:33:06.186Z,102338.97
2023-04-04T09:35:36.651Z,102337.50
2023-04-04T09:38:07.531Z,102337.38
2023-04-04T09:40:37.214Z,102342.84
2023-04-04T09:43:08.992Z,102346.91
2023-04-04T09:45:40.664Z,102345.53
2023-04-04T09:48:09.266Z,102339.28
2023-04-04T09:50:39.704Z,102340.09
2023-04-04T09:53:09.427Z,102343.56
2023-04-04T09:55:38.877Z,102330.81
2023-04-04T09:58:14.146Z,102342.91
2023-04-04T10:00:47.903Z,102340.13
2023-04-04T10:03:17.829Z,102331.13
2023-04-04T10:05:46.960Z,102329.31
2023-04-04T10:08:18.738Z,102338.47
2023-04-04T10:10:58.842Z,102329.72
2023-04-04T10:13:37.054Z,102326.09
2023-04-04T10:16:06.043Z,102327.78
2023-04-04T10:18:36.193Z,102334.75
2023-04-04T10:21:15.247Z,102343.19
2023-04-04T10:23:47.753Z,102346.53
2023-04-04T10:26:16.432Z,102340.28
2023-04-04T10:28:45.604Z,102345.16
2023-04-04T10:31:19.378Z,102337.66
2023-04-04T10:33:53.760Z,102339.91
2023-04-04T10:36:24.891Z,102337.69
2023-04-04T10:39:04.936Z,102356.16
2023-04-04T10:41:34.279Z,102356.06
2023-04-04T10:44:10.778Z,102347.72
2023-04-04T10:46:44.925Z,102336.63
2023-04-04T10:49:13.667Z,102329.84
2023-04-04T10:51:54.851Z,102324.56
2023-04-04T10:54:27.680Z,102324.16
2023-04-04T10:57:00.768Z,102329.84
2023-04-04T10:59:29.328Z,102337.78
2023-04-04T11:01:59.286Z,102338.91
2023-04-04T11:04:33.415Z,102351.00
2023-04-04T11:07:12.859Z,102353.66
2023-04-04T11:10:02.189Z,102348.78
2023-04-04T11:12:33.706Z,102344.47
2023-04-04T11:15:09.896Z,102329.31
2023-04-04T11:17:57.623Z,102324.72
2023-04-04T11:20:30.760Z,102318.75
2023-04-04T11:23:07.258Z,102328.59
2023-04-04T11:25:41.593Z,102329.44
2023-04-04T11:28:14.889Z,102325.28
2023-04-04T11:30:51.388Z,102323.88
2023-04-04T11:33:29.151Z,102319.84
2023-04-04T11:36:01.966Z,102313.59
2023-04-04T11:38:30.711Z,102294.25
2023-04-04T11:41:00.978Z,102293.16
2023-04-04T11:43:29.894Z,102291.63
2023-04-04T11:46:09.164Z,102281.75
2023-04-04T11:48:38.471Z,102278.16
2023-04-04T11:51:08.289Z,102281.47
2023-04-04T11:53:36.489Z,102279.81
2023-04-04T11:56:06.378Z,102269.94
2023-04-04T11:58:37.206Z,102279.66
2023-04-04T12:01:06.629Z,102280.22
2023-04-04T12:03:36.538Z,102282.72
2023-04-04T12:06:05.101Z,102266.31
2023-04-04T12:08:33.740Z,102268.00
2023-04-04T12:11:10.712Z,102260.75
2023-04-04T12:13:44.854Z,102248.91
2023-04-04T12:16:13.168Z,102248.63
2023-04-04T12:18:41.778Z,102246.41
2023-04-04T12:21:09.988Z,102248.88
2023-04-04T12:23:38.224Z,102241.78
2023-04-04T12:26:09.623Z,102241.06
2023-04-04T12:28:39.566Z,102235.31
2023-04-04T12:31:08.314Z,102243.22
2023-04-04T12:33:38.136Z,102241.22
2023-04-04T12:36:08.016Z,102233.19
2023-04-04T12:38:41.377Z,102232.56
2023-04-04T12:41:19.551Z,102231.81
2023-04-04T12:43:48.162Z,102233.25
2023-04-04T12:46:16.513Z,102226.75
2023-04-04T12:48:45.738Z,102236.81
2023-04-04T12:51:16.050Z,102226.91
2023-04-04T12:53:53.061Z,102226.81
2023-04-04T12:56:27.549Z,102228.19
2023-04-04T12:59:03.333Z,102216.97
2023-04-04T13:01:32.353Z,102211.59
2023-04-04T13:04:04.276Z,102207.03
2023-04-04T13:06:33.612Z,102205.28
2023-04-04T13:09:01.788Z,102206.78
2023-04-04T13:11:57.198Z,102205.25
2023-04-04T13:14:25.443Z,102206.34
2023-04-04T13:17:04.531Z,102206.06
2023-04-04T13:19:32.740Z,102207.41
2023-04-04T13:22:03.824Z,102204.25
2023-04-04T13:24:31.965Z,102213.34
2023-04-04T13:27:01.422Z,102210.72
2023-04-04T13:29:29.495Z,102202.75
2023-04-04T13:31:57.772Z,102198.94
2023-04-04T13:34:26.899Z,102194.47
2023-04-04T13:36:56.418Z,102195.13
2023-04-04T13:39:25.227Z,102188.66
2023-04-04T13:41:53.249Z,102184.81
2023-04-04T13:44:23.695Z,102184.19
2023-04-04T13:46:52.574Z,102182.22
2023-04-04T13:49:20.722Z,102173.25
2023-04-04T13:51:49.139Z,102165.47
2023-04-04T13:54:17.277Z,102158.31
2023-04-04T13:56:46.880Z,102154.69
2023-04-04T13:59:15.200Z,102150.66
2023-04-04T14:01:44.904Z,102156.97
2023-04-04T14:04:22.640Z,102154.66
2023-04-04T14:06:51.928Z,102155.81
2023-04-04T14:09:20.447Z,102146.47
2023-04-04T14:11:48.620Z,102141.66
2023-04-04T14:14:17.079Z,102137.69
2023-04-04T14:16:47.286Z,102126.88
2023-04-04T14:19:15.499Z,102124.56
2023-04-04T14:21:43.741Z,102129.22
2023-04-04T14:24:11.853Z,102128.53
2023-04-04T14:26:39.994Z,102115.75
2023-04-04T14:29:08.443Z,102113.25
2023-04-04T14:31:36.705Z,102122.88
2023-04-04T14:34:06.855Z,102122.03
2023-04-04T14:36:35.052Z,102122.00
2023-04-04T14:39:03.277Z,102116.34
2023-04-04T14:41:31.560Z,102106.56
2023-04-04T14:43:59.632Z,102109.88
2023-04-04T14:46:27.794Z,102109.03
2023-04-04T14:48:55.989Z,102098.41
2023-04-04T14:51:25.590Z,102090.75
2023-04-04T14:53:53.802Z,102105.00
2023-04-04T14:56:23.368Z,102100.00
2023-04-04T14:58:52.100Z,102107.28
2023-04-04T15:01:22.065Z,102096.97
2023-04-04T15:03:50.396Z,102092.66
2023-04-04T15:06:18.652Z,102087.69
2023-04-04T15:08:48.250Z,102083.53
2023-04-04T15:11:16.788Z,102091.66
2023-04-04T15:13:45.274Z,102079.88
2023-04-04T15:16:13.382Z,102077.06
2023-04-04T15:18:41.522Z,102069.94
2023-04-04T15:21:09.661Z,102059.09
2023-04-04T15:23:37.974Z,102050.81
2023-04-04T15:26:07.564Z,102043.16
2023-04-04T15:28:35.753Z,102037.16
2023-04-04T15:31:04.178Z,102034.50
2023-04-04T15:33:32.832Z,102024.50
2023-04-04T15:36:01.058Z,102029.00
2023-04-04T15:38:29.358Z,102026.84
2023-04-04T15:40:57.976Z,102035.81
2023-04-04T15:43:27.977Z,102045.25
2023-04-04T15:45:56.274Z,102049.47
2023-04-04T15:48:24.644Z,102052.75
2023-04-04T15:50:52.895Z,102053.28
2023-04-04T15:53:21.566Z,102056.59
2023-04-04T15:55:49.692Z,102066.22
2023-04-04T15:58:17.945Z,102073.03
2023-04-04T16:00:48.190Z,102068.38
2023-04-04T16:03:16.616Z,102063.75
2023-04-04T16:05:44.905Z,102060.13
2023-04-04T16:08:14.635Z,102054.00
2023-04-04T16:10:44.299Z,102054.81
2023-04-04T16:13:12.539Z,102067.06
2023-04-04T16:15:40.824Z,102060.41
2023-04-04T16:18:10.672Z,102074.84
2023-04-04T16:20:39.097Z,102062.22
2023-04-04T16:23:07.427Z,102061.41
2023-04-04T16:25:35.924Z,102069.13
2023-04-04T16:28:03.966Z,102073.56
2023-04-04T16:30:32.207Z,102067.91
2023-04-04T16:33:00.515Z,102065.88
2023-04-04T16:35:30.097Z,102067.34
2023-04-04T16:37:58.256Z,102068.81
2023-04-04T16:40:26.375Z,102068.75
2023-04-04T16:42:54.540Z,102065.88
2023-04-04T16:45:22.867Z,102059.38
2023-04-04T16:47:51.759Z,102055.72
2023-04-04T16:50:20.026Z,102052.16
2023-04-04T16:52:49.557Z,102055.81
2023-04-04T16:55:17.789Z,102050.16
2023-04-04T16:57:46.577Z,102054.91
2023-04-04T17:00:15.930Z,102049.50
2023-04-04T17:02:46.350Z,102053.28
2023-04-04T17:05:14.885Z,102055.78
2023-04-04T17:07:43.401Z,102064.72
2023-04-04T17:10:14.102Z,102065.47
2023-04-04T17:12:42.212Z,102067.28
2023-04-04T17:15:11.334Z,102066.00
2023-04-04T17:17:39.627Z,102066.59
2023-04-04T17:20:08.610Z,102062.44
2023-04-04T17:22:38.599Z,102063.06
2023-04-04T17:25:07.768Z,102068.44
2023-04-04T17:27:37.484Z,102059.78
2023-04-04T17:30:06.650Z,102061.44
2023-04-04T17:32:35.150Z,102066.06
2023-04-04T17:35:03.412Z,102060.09
2023-04-04T17:37:32.402Z,102056.56
2023-04-04T17:40:01.305Z,102061.69
2023-04-04T17:42:29.436Z,102054.03
2023-04-04T17:44:59.086Z,102050.34
2023-04-04T17:47:27.350Z,102047.59
2023-04-04T17:49:57.332Z,102056.81
2023-04-04T17:52:25.476Z,102054.75
2023-04-04T17:54:54.366Z,102048.50
2023-04-04T17:57:22.614Z,102053.78
2023-04-04T17:59:51.386Z,102049.75
2023-04-04T18:02:21.195Z,102049.38
2023-04-04T18:04:49.369Z,102049.38
2023-04-04T18:07:19.153Z,102044.25
2023-04-04T18:09:47.660Z,102041.72
2023-04-04T18:12:16.038Z,102044.59
2023-04-04T18:14:44.188Z,102038.91
2023-04-04T18:17:12.859Z,102039.50
2023-04-04T18:19:42.751Z,102029.38
2023-04-04T18:22:10.929Z,102037.72
2023-04-04T18:24:39.158Z,102028.81
2023-04-04T18:27:09.179Z,102031.47
2023-04-04T18:29:37.441Z,102023.69
2023-04-04T18:32:05.785Z,102015.06
2023-04-04T18:34:34.005Z,102014.50
2023-04-04T18:37:03.500Z,102006.47
2023-04-04T18:39:31.931Z,102001.63
2023-04-04T18:42:00.183Z,102005.38
2023-04-04T18:44:28.340Z,102005.53
2023-04-04T18:46:58.400Z,102010.41
2023-04-04T18:49:27.267Z,101998.88
2023-04-04T18:51:55.578Z,101998.88
2023-04-04T18:54:27.234Z,101991.09
2023-04-04T18:56:56.854Z,101993.19
2023-04-04T18:59:25.535Z,101986.25
2023-04-04T19:01:54.210Z,101979.41
2023-04-04T19:04:22.674Z,101981.50
2023-04-04T19:06:51.515Z,101979.00
2023-04-04T19:09:21.399Z,101977.91
2023-04-04T19:11:54.638Z,101975.53
2023-04-04T19:14:22.895Z,101973.06
2023-04-04T19:16:51.449Z,101970.25
2023-04-04T19:19:21.624Z,101963.00
2023-04-04T19:21:49.833Z,101968.28
2023-04-04T19:24:18.052Z,101967.91
2023-04-04T19:26:47.191Z,101958.31
2023-04-04T19:29:22.405Z,101963.59
2023-04-04T19:31:50.713Z,101967.22
2023-04-04T19:34:20.627Z,101964.75
2023-04-04T19:36:48.878Z,101956.94
2023-04-04T19:39:20.784Z,101958.22
2023-04-04T19:41:48.938Z,101962.66
2023-04-04T19:44:21.235Z,101963.41
2023-04-04T19:46:49.913Z,101957.56
2023-04-04T19:49:19.387Z,101960.38
2023-04-04T19:51:51.908Z,101958.69
2023-04-04T19:54:25.956Z,101946.75
2023-04-04T19:57:00.161Z,101962.03
2023-04-04T19:59:59.140Z,101951.50
2023-04-04T20:02:57.016Z,101957.31
2023-04-04T20:05:57.729Z,101953.00
2023-04-04T20:08:36.063Z,101947.72
2023-04-04T20:11:05.761Z,101950.50
2023-04-04T20:13:36.161Z,101949.69
2023-04-04T20:16:08.080Z,101947.59
2023-04-04T20:18:37.971Z,101948.13
2023-04-04T20:21:08.815Z,101955.91
2023-04-04T20:23:45.626Z,101945.34
2023-04-04T20:26:16.313Z,101946.75
2023-04-04T20:28:47.933Z,101945.06
2023-04-04T20:31:19.762Z,101941.75
2023-04-04T20:33:48.559Z,101948.03
2023-04-04T20:36:33.155Z,101943.84
2023-04-04T20:39:01.661Z,101934.00
2023-04-04T20:41:29.900Z,101941.25
2023-04-04T20:43:59.902Z,101930.13
2023-04-04T20:46:32.934Z,101928.19
2023-04-04T20:49:01.307Z,101929.19
2023-04-04T20:51:31.077Z,101922.78
2023-04-04T20:54:01.065Z,101916.50
2023-04-04T20:56:55.388Z,101919.31
2023-04-04T20:59:38.435Z,101912.06
2023-04-04T21:02:13.645Z,101903.19
2023-04-04T21:04:44.011Z,101890.00
2023-04-04T21:07:36.176Z,101894.56
2023-04-04T21:10:21.620Z,101884.03
2023-04-04T21:12:49.816Z,101881.81
2023-04-04T21:15:28.737Z,101868.22
2023-04-04T21:18:00.260Z,101875.59
2023-04-04T21:21:01.612Z,101868.50
2023-04-04T21:23:34.395Z,101873.78
2023-04-04T21:26:04.221Z,101873.66
2023-04-04T21:28:36.270Z,101874.34
2023-04-04T21:31:14.309Z,101870.88
2023-04-04T21:33:44.976Z,101860.72
2023-04-04T21:36:26.399Z,101852.94
2023-04-04T21:38:55.693Z,101858.38
2023-04-04T21:41:26.339Z,101857.94
2023-04-04T21:43:55.704Z,101852.13
2023-04-04T21:46:25.723Z,101848.66
2023-04-04T21:48:56.078Z,101853.78
2023-04-04T21:51:24.176Z,101844.63
2023-04-04T21:53:52.527Z,101847.00
2023-04-04T21:56:21.300Z,101847.84
2023-04-04T21:58:49.851Z,101842.13
2023-04-04T22:01:18.034Z,101833.25
2023-04-04T22:03:46.261Z,101837.56
2023-04-04T22:06:15.844Z,101829.63
2023-04-04T22:08:44.342Z,101826.56
2023-04-04T22:11:14.457Z,101819.63
2023-04-04T22:13:47.169Z,101814.34
2023-04-04T22:16:17.133Z,101809.91
2023-04-04T22:18:47.975Z,101808.25
2023-04-04T22:21:17.712Z,101807.94
2023-04-04T22:23:45.988Z,101797.16
2023-04-04T22:26:20.428Z,101795.63
2023-04-04T22:28:50.275Z,101792.59
2023-04-04T22:31:18.354Z,101790.28
2023-04-04T22:33:46.811Z,101780.97
2023-04-04T22:36:16.206Z,101775.69
2023-04-04T22:38:45.734Z,101772.91
2023-04-04T22:41:13.831Z,101777.38
2023-04-04T22:43:41.932Z,101771.66
2023-04-04T22:46:10.062Z,101768.31
2023-04-04T22:48:41.505Z,101769.44
2023-04-04T22:51:10.052Z,101770.13
2023-04-04T22:53:38.246Z,101768.31
2023-04-04T22:56:08.553Z,101761.25
2023-04-04T22:58:36.676Z,101751.22
2023-04-04T23:01:04.972Z,101748.47
2023-04-04T23:03:33.403Z,101743.84
2023-04-04T23:06:01.617Z,101743.56
2023-04-04T23:08:29.788Z,101741.06
2023-04-04T23:10:57.885Z,101743.41
2023-04-04T23:13:27.445Z,101731.34
2023-04-04T23:15:55.807Z,101724.94
2023-04-04T23:18:24.409Z,101722.47
2023-04-04T23:20:53.170Z,101717.84
2023-04-04T23:23:21.595Z,101725.63
2023-04-04T23:25:49.788Z,101717.41
2023-04-04T23:28:18.521Z,101713.28
2023-04-04T23:30:48.146Z,101703.94
2023-04-04T23:33:16.690Z,101699.34
2023-04-04T23:35:44.952Z,101698.22
2023-04-04T23:38:13.600Z,101691.25
2023-04-04T23:40:42.020Z,101682.38
2023-04-04T23:43:10.353Z,101680.13
2023-04-04T23:45:41.361Z,101677.50
2023-04-04T23:48:11.308Z,101692.06
2023-04-04T23:50:41.589Z,101692.88
2023-04-04T23:53:09.884Z,101690.06
2023-04-04T23:55:38.038Z,101691.72
2023-04-04T23:58:06.507Z,101702.28
